Time;durP1;ratioP1;P1;durP2;ratioP2;P2;SDS_P1;SDS_P2;PMS_P1;PMS_P2;Temp;Humidity;BMP_temperature;BMP_pressure;BME280_temperature;BME280_humidity;BME280_pressure;Samples;Min_cycle;Max_cycle;Signal;HPM_P1;HPM_P2
2023/01/01 00:01:56;;;;;;;178.53;45.27;;;;;;;14.75;68.41;100639.31;4169685;28;20732;-65
2023/01/01 00:04:00;;;;;;;178.53;45.83;;;;;;;14.76;68.12;100657.28;4184588;28;21249;-65
2023/01/01 00:06:05;;;;;;;175.83;45.03;;;;;;;14.73;67.56;100668.59;4168384;28;20750;-63
2023/01/01 00:08:07;;;;;;;175.20;45.37;;;;;;;14.74;68.54;100672.13;4169332;28;21263;-64
2023/01/01 00:10:27;;;;;;;172.00;44.80;;;;;;;14.69;67.91;100653.72;4168859;28;20740;-63
2023/01/01 00:12:31;;;;;;;172.73;44.63;;;;;;;14.74;68.28;100667.53;4169459;28;21257;-66
2023/01/01 00:14:33;;;;;;;169.20;44.00;;;;;;;14.73;67.72;100678.59;4170523;28;20718;-66
2023/01/01 00:16:35;;;;;;;168.30;43.50;;;;;;;14.73;67.33;100667.72;4168467;28;21537;-65
2023/01/01 00:18:40;;;;;;;169.77;44.77;;;;;;;14.72;64.84;100683.22;4168977;28;20724;-64
2023/01/01 00:20:44;;;;;;;169.33;44.33;;;;;;;14.74;66.32;100675.69;4169079;28;21294;-63
2023/01/01 00:22:48;;;;;;;170.27;44.47;;;;;;;14.75;67.41;100674.63;4169402;28;20752;-64
2023/01/01 00:24:50;;;;;;;168.57;44.90;;;;;;;14.75;65.40;100674.63;4168751;28;20607;-63
2023/01/01 00:26:52;;;;;;;169.13;43.77;;;;;;;14.75;64.91;100684.69;4169122;28;21227;-63
2023/01/01 00:28:54;;;;;;;168.63;43.70;;;;;;;14.76;65.82;100678.19;4184721;28;20709;-66
2023/01/01 00:30:57;;;;;;;160.87;42.57;;;;;;;14.75;65.89;100692.84;4169408;28;20728;-64
2023/01/01 00:32:59;;;;;;;161.03;42.87;;;;;;;14.74;65.61;100688.44;4169052;28;20724;-63
2023/01/01 00:35:03;;;;;;;160.93;43.70;;;;;;;14.74;65.30;100683.00;4167906;28;20744;-67
2023/01/01 00:37:06;;;;;;;160.23;43.40;;;;;;;14.73;66.07;100682.19;4167596;28;21254;-66
2023/01/01 00:39:08;;;;;;;161.00;42.67;;;;;;;14.74;67.43;100691.97;4169383;28;21134;-66
2023/01/01 00:41:14;;;;;;;153.83;40.10;;;;;;;14.74;66.37;100691.97;4167992;28;20736;-64
2023/01/01 00:43:16;;;;;;;161.23;43.50;;;;;;;14.76;66.11;100699.94;4168457;28;21208;-63
2023/01/01 00:45:20;;;;;;;161.27;44.27;;;;;;;14.75;65.28;100701.00;4167396;28;20670;-63
2023/01/01 00:47:22;;;;;;;158.37;43.07;;;;;;;14.76;65.32;100686.34;4168360;28;21042;-65
2023/01/01 00:49:24;;;;;;;160.13;43.07;;;;;;;14.75;65.80;100687.41;4168955;28;21082;-64
2023/01/01 00:51:29;;;;;;;161.83;42.80;;;;;;;14.75;64.40;100684.69;4183799;28;20725;-66
2023/01/01 00:53:31;;;;;;;159.33;42.63;;;;;;;14.76;62.07;100687.19;4169171;28;20715;-65
2023/01/01 00:55:33;;;;;;;151.77;40.97;;;;;;;14.78;62.37;100690.53;4168627;28;20741;-65
2023/01/01 00:57:36;;;;;;;148.13;40.03;;;;;;;14.80;63.20;100686.78;4168768;28;20737;-65
2023/01/01 00:59:38;;;;;;;150.77;42.17;;;;;;;14.78;63.56;100685.09;4169141;28;21218;-65
2023/01/01 01:01:40;;;;;;;148.30;41.97;;;;;;;14.81;63.39;100692.03;4168454;28;21461;-63
2023/01/01 01:03:43;;;;;;;150.37;41.20;;;;;;;14.80;65.29;100692.22;4168771;28;20700;-64
2023/01/01 01:05:45;;;;;;;151.87;41.23;;;;;;;14.81;64.07;100697.47;4168224;28;21066;-64
2023/01/01 01:07:49;;;;;;;161.10;42.97;;;;;;;14.80;63.30;100695.78;4168846;28;21251;-63
2023/01/01 01:09:51;;;;;;;159.03;42.90;;;;;;;14.81;62.26;100694.75;4168938;28;20762;-64
2023/01/01 01:11:53;;;;;;;158.90;43.33;;;;;;;14.82;62.32;100692.84;4172948;28;21324;-64
2023/01/01 01:13:57;;;;;;;162.00;43.73;;;;;;;14.82;63.65;100696.41;4167773;28;20705;-64
2023/01/01 01:15:59;;;;;;;160.77;43.20;;;;;;;14.82;61.73;100696.41;4167246;28;21295;-64
2023/01/01 01:18:01;;;;;;;160.03;43.00;;;;;;;14.84;63.92;100704.34;4167601;28;21180;-63
2023/01/01 01:20:05;;;;;;;156.97;41.40;;;;;;;14.84;62.80;100701.63;4169153;28;20749;-63
2023/01/01 01:22:07;;;;;;;157.10;42.07;;;;;;;14.83;63.95;100728.00;4168493;28;21087;-63
2023/01/01 01:24:11;;;;;;;159.27;42.40;;;;;;;14.83;62.37;100695.38;4170423;28;21200;-63
2023/01/01 01:26:15;;;;;;;156.43;41.90;;;;;;;14.80;62.58;100682.19;4169586;28;21221;-64
2023/01/01 01:28:17;;;;;;;159.43;42.70;;;;;;;14.84;61.82;100694.31;4170300;28;21042;-65
2023/01/01 01:30:20;;;;;;;159.47;42.30;;;;;;;14.82;62.49;100688.25;4178602;28;21115;-64
2023/01/01 01:32:22;;;;;;;157.97;42.07;;;;;;;14.83;64.16;100728.00;4172014;28;20641;-64
2023/01/01 01:34:25;;;;;;;159.23;42.43;;;;;;;14.85;62.29;100703.31;4172114;28;21283;-64
2023/01/01 01:36:28;;;;;;;156.90;41.90;;;;;;;14.84;62.65;100698.91;4172350;28;20724;-65
2023/01/01 01:38:30;;;;;;;160.20;42.33;;;;;;;14.83;60.77;100711.69;4173178;28;20725;-65
2023/01/01 01:40:34;;;;;;;159.47;42.23;;;;;;;14.84;60.04;100705.19;4172297;28;20736;-64
2023/01/01 01:42:36;;;;;;;159.70;42.33;;;;;;;14.85;60.17;100704.16;4172315;28;20754;-64
2023/01/01 01:44:52;;;;;;;157.67;42.00;;;;;;;14.85;60.52;100728.63;4171817;28;20732;-64
2023/01/01 01:47:04;;;;;;;156.00;41.90;;;;;;;14.84;61.23;100734.25;4172714;28;21063;-65
2023/01/01 01:49:14;;;;;;;155.97;41.87;;;;;;;14.85;60.37;100706.88;4171944;28;20708;-64
2023/01/01 01:51:20;;;;;;;157.70;42.27;;;;;;;14.87;59.89;100704.75;4172354;28;21076;-65
2023/01/01 01:53:25;;;;;;;156.97;42.10;;;;;;;14.87;60.54;100707.47;4172179;28;21545;-64
2023/01/01 01:55:29;;;;;;;156.53;41.50;;;;;;;14.86;61.84;100716.72;4172238;28;20743;-64
2023/01/01 01:57:33;;;;;;;155.50;41.53;;;;;;;14.86;60.58;100724.00;4171829;28;20734;-64
2023/01/01 01:59:38;;;;;;;155.43;41.30;;;;;;;14.86;61.13;100699.53;4187358;28;20737;-65
2023/01/01 02:01:41;;;;;;;154.60;41.50;;;;;;;14.84;61.00;100721.50;4171828;28;21285;-64
2023/01/01 02:03:47;;;;;;;154.00;41.97;;;;;;;14.84;62.06;100709.78;4171575;28;21302;-67
2023/01/01 02:05:50;;;;;;;145.17;37.60;;;;;;;14.83;61.11;100702.66;4170802;28;20753;-65
2023/01/01 02:07:54;;;;;;;151.83;40.70;;;;;;;14.84;61.96;100718.78;4171913;28;20657;-65
2023/01/01 02:09:56;;;;;;;147.47;39.17;;;;;;;14.85;62.57;100719.63;4171432;28;20712;-65
2023/01/01 02:11:59;;;;;;;142.80;37.23;;;;;;;14.83;60.74;100708.97;4172370;28;20684;-64
2023/01/01 02:14:04;;;;;;;151.80;41.83;;;;;;;14.83;61.09;100711.69;4172511;28;20717;-65
2023/01/01 02:16:09;;;;;;;149.33;40.37;;;;;;;14.83;61.68;100716.25;4171180;28;20705;-65
2023/01/01 02:18:14;;;;;;;148.87;40.57;;;;;;;14.84;62.29;100739.69;4171083;28;20710;-64
2023/01/01 02:20:25;;;;;;;146.03;39.50;;;;;;;14.83;61.38;100729.84;4171183;28;21107;-63
2023/01/01 02:22:33;;;;;;;147.57;39.90;;;;;;;14.83;61.50;100735.28;4171979;28;20731;-63
2023/01/01 02:24:44;;;;;;;147.57;40.43;;;;;;;14.83;60.16;100713.53;4171711;28;20702;-63
2023/01/01 02:26:50;;;;;;;146.70;40.40;;;;;;;14.83;61.29;100724.41;4171310;28;20677;-64
2023/01/01 02:28:58;;;;;;;146.33;39.93;;;;;;;14.82;61.76;100712.72;4172410;28;20617;-63
2023/01/01 02:31:02;;;;;;;146.77;40.37;;;;;;;14.81;60.34;100713.78;4171187;28;20726;-64
2023/01/01 02:33:07;;;;;;;146.50;40.43;;;;;;;14.82;60.79;100718.16;4171765;28;20759;-64
2023/01/01 02:37:32;;;;;;;140.53;38.30;;;;;;;14.82;60.98;100714.59;4172371;28;20707;-64
2023/01/01 02:39:37;;;;;;;139.87;39.63;;;;;;;14.82;59.47;100712.72;4172054;28;20738;-63
2023/01/01 02:41:42;;;;;;;140.13;39.50;;;;;;;14.82;59.80;100701.84;4170904;28;21368;-64
2023/01/01 02:43:45;;;;;;;140.57;39.47;;;;;;;14.82;58.25;100726.31;4171822;28;21074;-64
2023/01/01 02:45:49;;;;;;;140.63;38.90;;;;;;;14.84;59.55;100716.06;4170217;28;20746;-65
2023/01/01 02:47:51;;;;;;;140.73;39.17;;;;;;;14.84;59.17;100718.78;4172742;28;20708;-64
2023/01/01 02:50:03;;;;;;;139.37;38.73;;;;;;;14.85;59.49;100727.78;4171189;28;21195;-65
2023/01/01 02:52:09;;;;;;;140.60;40.00;;;;;;;14.84;60.00;100704.34;4177860;28;20648;-64
2023/01/01 02:54:18;;;;;;;139.87;40.13;;;;;;;14.85;59.69;100712.31;4171888;28;21063;-64
2023/01/01 02:56:32;;;;;;;140.00;39.73;;;;;;;14.84;59.21;100707.06;4171301;28;20736;-64
2023/01/01 03:01:05;;;;;;;139.10;39.57;;;;;;;14.85;59.45;100695.97;4170574;28;20729;-64
2023/01/01 03:03:16;;;;;;;139.47;39.63;;;;;;;14.85;58.96;100695.97;4171350;28;20744;-64
2023/01/01 03:05:22;;;;;;;139.70;40.00;;;;;;;14.86;58.67;100699.53;4170059;28;20720;-64
2023/01/01 03:07:33;;;;;;;141.20;40.00;;;;;;;14.86;59.12;100700.38;4172270;28;20702;-64
2023/01/01 03:09:43;;;;;;;141.17;39.40;;;;;;;14.85;59.84;100704.16;4171495;28;20734;-65
2023/01/01 03:11:48;;;;;;;141.53;40.17;;;;;;;14.85;61.23;100715.03;4170251;28;20658;-64
2023/01/01 03:13:56;;;;;;;138.30;39.33;;;;;;;14.82;59.68;100704.56;4170841;28;20742;-64
2023/01/01 03:16:04;;;;;;;136.60;38.70;;;;;;;14.82;58.82;100726.31;4168751;28;20719;-64
2023/01/01 03:18:09;;;;;;;138.37;39.77;;;;;;;14.82;59.63;100722.75;4169944;28;20728;-64
2023/01/01 03:20:14;;;;;;;136.77;39.17;;;;;;;14.81;58.80;100702.91;4169662;28;20735;-64
2023/01/01 03:22:17;;;;;;;137.23;39.03;;;;;;;14.79;57.97;100726.72;4169495;28;21370;-65
2023/01/01 03:24:23;;;;;;;136.30;38.60;;;;;;;14.80;58.86;100724.84;4170613;28;20729;-64
2023/01/01 03:26:26;;;;;;;137.33;39.47;;;;;;;14.77;58.24;100732.34;4170537;28;20753;-64
2023/01/01 03:28:32;;;;;;;135.03;38.40;;;;;;;14.74;58.52;100712.91;4169843;28;20713;-65
2023/01/01 03:30:37;;;;;;;136.63;39.00;;;;;;;14.76;60.87;100738.00;4169611;28;21112;-64
2023/01/01 03:33:03;;;;;;;134.90;39.00;;;;;;;14.74;58.79;100731.94;4170403;28;20652;-64
2023/01/01 03:35:06;;;;;;;136.40;39.67;;;;;;;14.73;58.99;100720.22;4169954;28;20736;-64
2023/01/01 03:37:10;;;;;;;134.33;39.30;;;;;;;14.73;58.99;100722.09;4170663;28;20724;-64
2023/01/01 03:39:18;;;;;;;132.10;38.67;;;;;;;14.73;57.16;100741.97;4170064;28;20286;-65
2023/01/01 03:41:25;;;;;;;134.77;39.27;;;;;;;14.73;60.03;100724.81;4184996;28;21159;-64
2023/01/01 03:43:35;;;;;;;133.57;39.10;;;;;;;14.72;59.67;100717.72;4170015;28;20713;-65
2023/01/01 03:45:39;;;;;;;134.27;38.73;;;;;;;14.71;58.47;100726.91;4169824;28;20313;-65
2023/01/01 03:47:43;;;;;;;125.20;38.00;;;;;;;14.70;60.20;100725.22;4171007;28;20713;-65
2023/01/01 03:49:46;;;;;;;124.87;37.93;;;;;;;14.71;59.63;100726.91;4170160;28;20310;-65
2023/01/01 03:51:57;;;;;;;125.40;37.73;;;;;;;14.69;58.40;100723.56;4169724;28;21116;-64
2023/01/01 03:54:02;;;;;;;133.67;39.10;;;;;;;14.66;57.17;100723.97;4170286;28;20202;-64
2023/01/01 03:56:10;;;;;;;133.30;38.83;;;;;;;14.67;56.74;100725.63;4169888;28;20312;-64
2023/01/01 03:58:18;;;;;;;133.17;39.03;;;;;;;14.66;57.11;100732.97;4171032;28;20291;-65
2023/01/01 04:00:23;;;;;;;131.73;38.93;;;;;;;14.65;57.95;100727.72;4169960;28;20335;-64
2023/01/01 04:02:28;;;;;;;131.93;38.50;;;;;;;14.65;58.68;100734.00;4171259;28;20631;-64
2023/01/01 04:04:32;;;;;;;132.87;38.93;;;;;;;14.64;59.70;100748.66;4170513;28;20291;-64
2023/01/01 04:06:34;;;;;;;133.23;38.97;;;;;;;14.63;59.35;100763.25;4169513;28;20773;-65
2023/01/01 04:08:37;;;;;;;131.77;38.80;;;;;;;14.63;58.81;100743.41;4170734;28;20708;-65
2023/01/01 04:10:43;;;;;;;131.77;38.60;;;;;;;14.59;57.75;100751.94;4169790;28;20737;-66
2023/01/01 04:12:47;;;;;;;130.43;38.33;;;;;;;14.57;57.25;100750.44;4170519;28;20297;-66
2023/01/01 04:14:49;;;;;;;131.60;39.13;;;;;;;14.54;57.44;100756.28;4169445;28;20615;-66
2023/01/01 04:16:51;;;;;;;130.77;38.30;;;;;;;14.53;57.67;100757.31;4170679;28;20284;-65
2023/01/01 04:18:53;;;;;;;130.07;38.17;;;;;;;14.51;57.70;100771.13;4170779;28;20282;-65
2023/01/01 04:20:57;;;;;;;132.07;39.00;;;;;;;14.47;57.05;100764.44;4168581;28;21097;-65
2023/01/01 04:23:00;;;;;;;131.53;38.53;;;;;;;14.48;57.71;100776.97;4171008;28;20319;-66
2023/01/01 04:25:02;;;;;;;131.63;39.30;;;;;;;14.48;59.39;100770.69;4170014;28;20872;-65
2023/01/01 04:27:05;;;;;;;125.50;38.17;;;;;;;14.46;57.62;100772.78;4170600;28;20286;-66
2023/01/01 04:29:07;;;;;;;133.77;39.33;;;;;;;14.46;58.01;100767.34;4169832;28;20733;-65
2023/01/01 04:31:10;;;;;;;134.63;39.47;;;;;;;14.41;58.49;100773.38;4170120;28;20750;-65
2023/01/01 04:33:12;;;;;;;134.33;40.00;;;;;;;14.39;57.70;100773.59;4170792;28;20755;-65
2023/01/01 04:35:15;;;;;;;133.80;39.50;;;;;;;14.39;58.72;100778.19;4169698;28;20232;-65
2023/01/01 04:37:19;;;;;;;133.10;38.97;;;;;;;14.37;59.06;100764.81;4170985;28;20743;-65
2023/01/01 04:39:21;;;;;;;132.83;38.87;;;;;;;14.35;57.97;100777.72;4170258;28;20715;-65
2023/01/01 04:41:23;;;;;;;134.50;39.43;;;;;;;14.36;59.04;100789.47;4169551;28;20326;-65
2023/01/01 04:43:25;;;;;;;133.53;39.40;;;;;;;14.35;58.83;100779.63;4170165;28;20288;-64
2023/01/01 04:45:27;;;;;;;131.63;39.30;;;;;;;14.35;58.98;100787.78;4169126;28;20320;-65
2023/01/01 04:47:30;;;;;;;132.83;39.43;;;;;;;14.34;58.94;100777.94;4170473;28;21019;-65
2023/01/01 04:49:32;;;;;;;132.73;39.40;;;;;;;14.31;58.71;100778.34;4169951;28;20287;-64
2023/01/01 04:51:35;;;;;;;133.10;39.13;;;;;;;14.29;59.52;100783.97;4169621;28;20310;-64
2023/01/01 04:53:39;;;;;;;133.10;39.17;;;;;;;14.27;58.73;100791.50;4185516;28;20715;-64
2023/01/01 04:55:42;;;;;;;134.77;39.70;;;;;;;14.27;58.28;100777.91;4168430;28;20245;-64
2023/01/01 04:57:45;;;;;;;132.63;39.13;;;;;;;14.24;58.24;100781.03;4169553;28;20306;-64
2023/01/01 04:59:47;;;;;;;131.30;39.17;;;;;;;14.24;59.21;100790.00;4168968;28;20707;-64
2023/01/01 05:01:50;;;;;;;131.10;38.73;;;;;;;14.22;57.96;100794.81;4170067;28;20317;-64
2023/01/01 05:03:52;;;;;;;130.47;38.87;;;;;;;14.21;58.06;100784.13;4169411;28;20290;-65
2023/01/01 05:06:02;;;;;;;130.53;38.37;;;;;;;14.20;58.24;100790.59;4172860;28;20728;-64
2023/01/01 05:08:04;;;;;;;131.50;38.67;;;;;;;14.19;59.39;100799.81;4172894;28;20707;-64
2023/01/01 05:10:08;;;;;;;132.00;38.77;;;;;;;14.18;59.27;100790.78;4172579;28;20747;-64
2023/01/01 05:12:11;;;;;;;131.60;38.80;;;;;;;14.18;59.89;100793.50;4172776;28;20769;-65
2023/01/01 05:14:13;;;;;;;130.87;38.53;;;;;;;14.17;58.20;100794.56;4172380;28;20763;-64
2023/01/01 05:16:17;;;;;;;130.87;39.37;;;;;;;14.13;57.79;100789.75;4178785;28;21225;-64
2023/01/01 05:18:19;;;;;;;130.23;39.17;;;;;;;14.12;58.26;100783.47;4172472;28;20707;-65
2023/01/01 05:20:22;;;;;;;130.93;39.60;;;;;;;14.10;57.49;100815.41;4172181;28;20729;-63
2023/01/01 05:22:24;;;;;;;129.37;39.13;;;;;;;14.11;57.62;100795.38;4172742;28;20729;-64
2023/01/01 05:24:26;;;;;;;128.50;38.63;;;;;;;14.10;57.53;100799.09;4172499;28;20707;-64
2023/01/01 05:26:31;;;;;;;129.20;38.37;;;;;;;14.10;58.36;100793.69;4172246;28;21116;-64
2023/01/01 05:28:34;;;;;;;131.37;39.17;;;;;;;14.12;59.08;100788.03;4173218;28;21332;-63
2023/01/01 05:30:39;;;;;;;131.60;38.67;;;;;;;14.12;58.86;100788.03;4172326;28;20303;-64
2023/01/01 05:32:41;;;;;;;133.67;39.60;;;;;;;14.12;59.56;100798.91;4172637;28;20720;-64
2023/01/01 05:34:43;;;;;;;132.67;39.73;;;;;;;14.12;58.86;100790.75;4188386;28;20304;-64
2023/01/01 05:36:45;;;;;;;132.30;38.80;;;;;;;14.12;58.66;100802.50;4172956;28;20206;-63
2023/01/01 05:38:48;;;;;;;129.20;38.00;;;;;;;14.14;58.96;100824.03;4173370;28;20289;-64
2023/01/01 05:40:50;;;;;;;130.70;38.73;;;;;;;14.16;58.54;100800.19;4171995;28;21081;-63
2023/01/01 05:42:54;;;;;;;132.40;39.47;;;;;;;14.17;58.86;100799.16;4171831;28;20734;-64
2023/01/01 05:44:56;;;;;;;129.77;39.33;;;;;;;14.14;59.40;100813.97;4170245;28;21237;-66
2023/01/01 05:46:58;;;;;;;129.93;38.57;;;;;;;14.15;59.88;100803.94;4172657;28;20705;-63
2023/01/01 05:49:01;;;;;;;133.73;39.67;;;;;;;14.14;58.59;100792.25;4172371;28;20722;-63
2023/01/01 05:51:04;;;;;;;130.23;38.47;;;;;;;14.16;59.86;100798.31;4171429;28;20340;-64
2023/01/01 05:53:06;;;;;;;130.07;39.00;;;;;;;14.18;60.49;100793.50;4172084;28;20753;-64
2023/01/01 05:55:08;;;;;;;130.57;39.30;;;;;;;14.16;60.74;100792.88;4171931;28;20816;-63
2023/01/01 05:57:11;;;;;;;127.57;38.47;;;;;;;14.17;60.51;100797.28;4171764;28;20634;-63
2023/01/01 05:59:14;;;;;;;124.07;37.73;;;;;;;14.17;60.51;100808.16;4171280;28;20721;-63
2023/01/01 06:01:19;;;;;;;127.67;38.77;;;;;;;14.16;59.53;100801.03;4170912;28;20729;-63
2023/01/01 06:03:21;;;;;;;126.83;38.57;;;;;;;14.15;59.36;100814.81;4171440;28;20617;-64
2023/01/01 06:05:23;;;;;;;126.63;38.73;;;;;;;14.16;59.82;100811.91;4170979;28;20317;-64
2023/01/01 06:07:25;;;;;;;125.40;38.47;;;;;;;14.16;60.13;100803.75;4172395;28;20734;-64
2023/01/01 06:09:28;;;;;;;125.23;38.23;;;;;;;14.19;61.04;100805.25;4171564;28;20297;-64
2023/01/01 06:11:31;;;;;;;124.03;38.63;;;;;;;14.18;60.97;100798.94;4170905;28;20360;-64
2023/01/01 06:13:33;;;;;;;123.47;39.37;;;;;;;14.18;59.95;100808.97;4170589;28;20304;-64
2023/01/01 06:15:37;;;;;;;122.50;38.50;;;;;;;14.16;59.47;100813.78;4169298;28;20299;-64
2023/01/01 06:17:39;;;;;;;122.10;38.07;;;;;;;14.16;59.65;100797.50;4171029;28;20204;-64
2023/01/01 06:19:41;;;;;;;119.57;38.23;;;;;;;14.16;60.01;100800.19;4170671;28;20282;-64
2023/01/01 06:21:44;;;;;;;117.53;37.47;;;;;;;14.12;59.31;100799.78;4171267;28;20311;-64
2023/01/01 06:23:46;;;;;;;118.27;37.30;;;;;;;14.12;59.72;100815.22;4171222;28;20303;-64
2023/01/01 06:25:48;;;;;;;117.20;37.10;;;;;;;14.11;59.21;100806.22;4170558;28;20316;-65
2023/01/01 06:27:51;;;;;;;116.27;37.07;;;;;;;14.11;59.72;100799.97;4171580;28;20283;-66
2023/01/01 06:29:53;;;;;;;114.60;37.00;;;;;;;14.11;59.89;100819.81;4170941;28;20746;-64
2023/01/01 06:31:56;;;;;;;114.77;37.10;;;;;;;14.13;60.53;100830.47;4171240;28;20302;-64
2023/01/01 06:33:59;;;;;;;111.37;36.80;;;;;;;14.12;59.82;100832.38;4170277;28;20656;-65
2023/01/01 06:36:02;;;;;;;110.93;36.57;;;;;;;14.11;59.66;100832.56;4170425;28;20316;-65
2023/01/01 06:38:04;;;;;;;112.77;36.57;;;;;;;14.12;60.18;100826.06;4171152;28;20221;-63
2023/01/01 06:40:07;;;;;;;113.73;37.13;;;;;;;14.12;59.77;100847.81;4170628;28;20311;-64
2023/01/01 06:42:10;;;;;;;113.17;37.00;;;;;;;14.11;60.08;100846.13;4171355;28;20348;-64
2023/01/01 06:44:12;;;;;;;112.67;36.40;;;;;;;14.11;59.85;100835.28;4170990;28;20301;-64
2023/01/01 06:46:16;;;;;;;114.30;36.90;;;;;;;14.09;59.43;100840.03;4170186;28;20314;-64
2023/01/01 06:48:20;;;;;;;113.33;37.10;;;;;;;14.07;59.24;100845.69;4170888;28;20286;-64
2023/01/01 06:50:22;;;;;;;113.70;36.67;;;;;;;14.09;59.42;100853.63;4170092;28;20335;-64
2023/01/01 06:52:24;;;;;;;115.17;37.47;;;;;;;14.10;60.47;100860.75;4171225;28;20308;-65
2023/01/01 06:54:26;;;;;;;115.30;37.37;;;;;;;14.11;60.48;100863.25;4170584;28;20279;-64
2023/01/01 06:56:29;;;;;;;115.60;37.17;;;;;;;14.11;60.28;100860.53;4126066;28;1249793;-65
2023/01/01 06:58:32;;;;;;;114.67;37.27;;;;;;;14.12;59.57;100861.38;4171220;28;20680;-65
2023/01/01 07:00:34;;;;;;;115.50;37.23;;;;;;;14.12;60.97;100854.09;4170324;28;20315;-65
2023/01/01 07:02:36;;;;;;;116.33;36.83;;;;;;;14.10;59.51;100863.47;4171684;28;20665;-65
2023/01/01 07:04:41;;;;;;;116.73;37.33;;;;;;;14.07;59.83;100856.53;4170957;28;20292;-64
2023/01/01 07:06:43;;;;;;;116.00;37.30;;;;;;;14.09;59.88;100850.91;4171326;28;20284;-64
2023/01/01 07:08:45;;;;;;;116.67;37.57;;;;;;;14.09;59.36;100864.50;4171264;28;20280;-65
2023/01/01 07:10:48;;;;;;;116.77;37.47;;;;;;;14.08;59.65;100857.41;4170372;28;20331;-65
2023/01/01 07:12:50;;;;;;;116.60;37.10;;;;;;;14.06;59.18;100861.13;4171232;28;20310;-65
2023/01/01 07:14:52;;;;;;;115.40;37.47;;;;;;;14.06;59.25;100863.84;4170516;28;20310;-66
2023/01/01 07:16:54;;;;;;;115.73;37.30;;;;;;;14.06;60.15;100874.72;4170675;28;20286;-64
2023/01/01 07:18:57;;;;;;;117.77;37.90;;;;;;;14.08;60.29;100881.84;4171871;28;21547;-65
2023/01/01 07:21:02;;;;;;;118.43;37.33;;;;;;;14.07;59.69;100886.41;4170153;28;20251;-64
2023/01/01 07:23:04;;;;;;;119.03;37.80;;;;;;;14.05;59.10;100892.03;4171468;28;20791;-65
2023/01/01 07:25:07;;;;;;;119.40;38.97;;;;;;;14.03;59.49;100894.13;4169679;28;20307;-65
2023/01/01 07:27:09;;;;;;;118.90;38.07;;;;;;;14.04;59.29;100890.38;4170287;28;20643;-64
2023/01/01 07:29:12;;;;;;;117.93;37.87;;;;;;;14.05;59.76;100891.22;4171405;28;20288;-65
2023/01/01 07:31:15;;;;;;;118.07;37.90;;;;;;;14.06;59.86;100898.34;4170382;28;20320;-64
2023/01/01 07:33:18;;;;;;;116.13;37.30;;;;;;;14.06;60.19;100896.44;4170749;28;20382;-64
2023/01/01 07:35:20;;;;;;;117.47;37.17;;;;;;;14.06;59.67;100892.91;4169334;28;20723;-64
2023/01/01 07:37:25;;;;;;;116.90;37.80;;;;;;;14.07;59.23;100905.41;4170444;28;20295;-61
2023/01/01 07:39:27;;;;;;;116.07;37.73;;;;;;;14.06;59.21;100925.50;4185193;28;20650;-64
2023/01/01 07:41:29;;;;;;;115.97;37.83;;;;;;;14.03;58.99;100910.41;4169742;28;20337;-64
2023/01/01 07:43:34;;;;;;;114.63;37.53;;;;;;;14.03;59.64;100904.97;4176639;28;20292;-65
2023/01/01 07:45:36;;;;;;;113.57;37.37;;;;;;;14.05;59.42;100907.50;4168164;28;20328;-65
2023/01/01 07:47:39;;;;;;;113.83;37.53;;;;;;;14.07;59.81;100910.84;4170112;28;20321;-63
2023/01/01 07:49:41;;;;;;;112.87;37.23;;;;;;;14.05;59.43;100915.66;4168414;28;20278;-65
2023/01/01 07:51:43;;;;;;;113.43;37.00;;;;;;;14.05;59.45;100921.91;4169612;28;20323;-65
2023/01/01 07:53:47;;;;;;;113.07;37.30;;;;;;;14.02;60.11;100916.88;4169822;28;20781;-63
2023/01/01 07:55:49;;;;;;;112.83;37.70;;;;;;;14.06;59.76;100920.06;4167307;28;20304;-64
2023/01/01 07:57:53;;;;;;;112.47;37.17;;;;;;;14.07;59.40;100932.56;4167921;28;20338;-64
2023/01/01 07:59:55;;;;;;;112.27;37.10;;;;;;;14.07;59.71;100927.16;4184568;28;20870;-64
2023/01/01 08:01:58;;;;;;;112.43;37.10;;;;;;;14.07;59.80;100938.00;4169571;28;20616;-64
2023/01/01 08:04:00;;;;;;;111.83;37.07;;;;;;;14.06;59.41;100934.47;4169902;28;20270;-64
2023/01/01 08:06:07;;;;;;;111.73;36.73;;;;;;;14.08;59.18;100944.31;4167459;28;20338;-64
2023/01/01 08:08:09;;;;;;;111.07;37.23;;;;;;;14.07;58.92;100948.88;4169371;28;20316;-63
2023/01/01 08:10:14;;;;;;;111.20;36.77;;;;;;;14.06;58.99;100948.03;4168418;28;20685;-63
2023/01/01 08:12:16;;;;;;;112.50;37.03;;;;;;;14.07;59.47;100938.00;4168828;28;20307;-63
2023/01/01 08:14:18;;;;;;;112.60;37.50;;;;;;;14.03;58.91;100937.56;4169192;28;20310;-62
2023/01/01 08:16:20;;;;;;;111.97;37.07;;;;;;;14.10;59.26;100945.78;4168316;28;20307;-67
2023/01/01 08:18:23;;;;;;;112.13;37.17;;;;;;;14.10;60.02;100945.78;4171037;28;20253;-65
2023/01/01 08:20:25;;;;;;;112.73;37.37;;;;;;;14.11;59.41;100949.34;4169217;28;20232;-64
2023/01/01 08:22:28;;;;;;;111.17;37.13;;;;;;;14.09;59.02;100943.25;4169900;28;20330;-63
2023/01/01 08:24:30;;;;;;;111.43;37.17;;;;;;;14.11;59.26;100954.78;4170420;28;20291;-63
2023/01/01 08:26:38;;;;;;;112.10;37.40;;;;;;;14.12;59.04;100945.56;4167647;28;20317;-63
2023/01/01 08:28:40;;;;;;;110.03;36.77;;;;;;;14.12;60.17;100938.28;4167951;28;20263;-64
2023/01/01 08:30:43;;;;;;;110.23;36.50;;;;;;;14.14;59.88;100944.34;4168515;28;20781;-63
2023/01/01 08:32:45;;;;;;;109.63;36.43;;;;;;;14.13;59.33;100958.97;4167707;28;20346;-63
2023/01/01 08:34:47;;;;;;;109.53;37.03;;;;;;;14.16;59.78;100946.88;4166645;28;20311;-63
2023/01/01 08:36:49;;;;;;;106.87;36.20;;;;;;;14.16;59.61;100950.41;4169454;28;20283;-61
2023/01/01 08:38:52;;;;;;;104.37;35.73;;;;;;;14.16;59.69;100955.84;4169546;28;20628;-64
2023/01/01 08:40:54;;;;;;;103.47;35.97;;;;;;;14.19;60.33;100969.03;4169085;28;20768;-63
2023/01/01 08:42:57;;;;;;;100.13;35.17;;;;;;;14.19;60.70;100968.22;4170021;28;20315;-61
2023/01/01 08:45:00;;;;;;;99.43;35.73;;;;;;;14.21;59.76;100974.28;4168192;28;20349;-62
2023/01/01 08:47:02;;;;;;;101.40;35.60;;;;;;;14.21;59.66;100966.97;4168982;28;20297;-65
2023/01/01 08:49:04;;;;;;;100.40;35.63;;;;;;;14.22;59.16;100974.09;4168928;28;20287;-63
2023/01/01 08:51:07;;;;;;;100.50;35.43;;;;;;;14.23;58.93;100969.50;4169133;28;20310;-64
2023/01/01 08:53:09;;;;;;;98.73;35.60;;;;;;;14.25;59.25;101000.03;4169585;28;20776;-64
2023/01/01 08:55:11;;;;;;;97.77;34.97;;;;;;;14.26;58.44;100987.28;4168478;28;20323;-62
2023/01/01 08:57:14;;;;;;;92.30;34.40;;;;;;;14.26;59.07;101001.69;4169049;28;20832;-63
2023/01/01 08:59:17;;;;;;;91.53;33.90;;;;;;;14.27;59.64;100991.69;4169552;28;20282;-63
2023/01/01 09:01:20;;;;;;;91.13;33.70;;;;;;;14.29;59.38;100976.84;4169120;28;20318;-62
2023/01/01 09:03:23;;;;;;;99.63;35.37;;;;;;;14.29;58.91;100976.84;4169536;28;20290;-62
2023/01/01 09:05:25;;;;;;;100.20;35.17;;;;;;;14.30;58.80;101002.16;4167888;28;20651;-64
2023/01/01 09:07:27;;;;;;;100.97;35.80;;;;;;;14.31;59.21;100974.81;4169758;28;20275;-63
2023/01/01 09:09:30;;;;;;;99.03;34.93;;;;;;;14.31;58.83;101004.69;4169689;28;20290;-63
2023/01/01 09:11:32;;;;;;;99.90;35.17;;;;;;;14.33;58.97;100996.34;4167617;28;20318;-62
2023/01/01 09:13:34;;;;;;;100.87;36.23;;;;;;;14.34;58.13;101000.72;4167615;28;20283;-64
2023/01/01 09:15:38;;;;;;;101.77;35.90;;;;;;;14.34;58.76;101004.31;4168267;28;20466;-64
2023/01/01 09:17:40;;;;;;;101.60;35.57;;;;;;;14.36;59.16;101009.53;4168309;28;20282;-65
2023/01/01 09:19:42;;;;;;;101.93;35.50;;;;;;;14.36;59.66;101018.53;4166800;28;20290;-62
2023/01/01 09:21:45;;;;;;;100.40;35.70;;;;;;;14.37;58.66;101022.94;4167483;28;20208;-60